createdAt,value
2018-07-12T00:02:15.031Z,14.75
2018-07-12T00:04:42.995Z,14.73
2018-07-12T00:07:10.652Z,14.70
2018-07-12T00:09:38.279Z,14.74
2018-07-12T00:12:06.490Z,14.64
2018-07-12T00:14:35.010Z,14.89
2018-07-12T00:17:02.658Z,15.13
2018-07-12T00:19:30.676Z,15.12
2018-07-12T00:21:58.303Z,15.31
2018-07-12T00:24:25.927Z,15.41
2018-07-12T00:26:53.571Z,15.42
2018-07-12T00:29:21.278Z,15.27
2018-07-12T00:31:48.913Z,14.83
2018-07-12T00:34:17.015Z,14.72
2018-07-12T00:36:44.675Z,14.76
2018-07-12T00:39:12.299Z,14.81
2018-07-12T00:41:39.945Z,15.00
2018-07-12T00:44:07.568Z,15.04
2018-07-12T00:46:35.208Z,15.22
2018-07-12T00:49:03.178Z,15.25
2018-07-12T00:51:30.874Z,15.23
2018-07-12T00:53:58.518Z,15.18
2018-07-12T00:56:26.638Z,15.15
2018-07-12T00:58:54.318Z,15.08
2018-07-12T01:01:21.945Z,15.03
2018-07-12T01:03:49.579Z,15.01
2018-07-12T01:06:17.270Z,15.02
2018-07-12T01:08:44.944Z,15.09
2018-07-12T01:11:12.658Z,15.05
2018-07-12T01:13:40.314Z,15.06
2018-07-12T01:16:07.932Z,15.10
2018-07-12T01:18:35.671Z,15.15
2018-07-12T01:21:03.340Z,15.15
2018-07-12T01:23:31.094Z,15.11
2018-07-12T01:25:58.719Z,15.12
2018-07-12T01:28:26.374Z,15.04
2018-07-12T01:30:53.991Z,14.84
2018-07-12T01:33:21.622Z,14.76
2018-07-12T01:35:49.363Z,14.81
2018-07-12T01:38:17.052Z,14.97
2018-07-12T01:40:44.739Z,15.11
2018-07-12T01:43:12.426Z,15.06
2018-07-12T01:45:40.083Z,14.97
2018-07-12T01:48:08.208Z,14.97
2018-07-12T01:50:35.919Z,14.94
2018-07-12T01:53:03.897Z,14.91
2018-07-12T01:55:32.164Z,15.17
2018-07-12T01:58:00.314Z,15.38
2018-07-12T02:00:27.953Z,15.42
2018-07-12T02:02:55.933Z,15.42
2018-07-12T02:05:23.597Z,15.35
2018-07-12T02:07:51.330Z,15.12
2018-07-12T02:10:19.343Z,14.96
2018-07-12T02:12:46.977Z,14.92
2018-07-12T02:15:14.627Z,14.82
2018-07-12T02:17:42.253Z,14.76
2018-07-12T02:20:10.204Z,14.84
2018-07-12T02:22:37.858Z,14.87
2018-07-12T02:25:05.577Z,14.82
2018-07-12T02:27:33.238Z,14.82
2018-07-12T02:30:00.852Z,14.98
2018-07-12T02:32:29.461Z,15.03
2018-07-12T02:34:57.272Z,14.80
2018-07-12T02:37:24.954Z,14.75
2018-07-12T02:39:52.591Z,14.73
2018-07-12T02:42:20.531Z,14.70
2018-07-12T02:44:48.180Z,14.53
2018-07-12T02:47:16.079Z,14.64
2018-07-12T02:49:43.984Z,14.52
2018-07-12T02:52:12.658Z,14.51
2018-07-12T02:54:40.469Z,14.42
2018-07-12T02:57:08.170Z,14.43
2018-07-12T02:59:36.103Z,14.46
2018-07-12T03:02:03.929Z,14.42
2018-07-12T03:04:32.681Z,14.49
2018-07-12T03:07:00.307Z,14.49
2018-07-12T03:09:27.931Z,14.63
2018-07-12T03:11:55.879Z,14.65
2018-07-12T03:14:24.135Z,14.73
2018-07-12T03:16:51.760Z,14.70
2018-07-12T03:19:19.394Z,14.72
2018-07-12T03:21:47.035Z,14.74
2018-07-12T03:24:14.670Z,14.66
2018-07-12T03:26:42.302Z,14.62
2018-07-12T03:29:09.975Z,14.52
2018-07-12T03:31:37.968Z,14.46
2018-07-12T03:34:06.059Z,14.53
2018-07-12T03:36:33.727Z,14.56
2018-07-12T03:39:01.363Z,14.55
2018-07-12T03:41:28.992Z,14.50
2018-07-12T03:43:56.706Z,14.53
2018-07-12T03:46:24.343Z,14.52
2018-07-12T03:48:51.982Z,14.45
2018-07-12T03:51:19.895Z,14.69
2018-07-12T03:53:47.611Z,14.81
2018-07-12T03:56:15.238Z,14.92
2018-07-12T03:58:43.439Z,14.89
2018-07-12T04:01:11.219Z,14.92
2018-07-12T04:03:39.716Z,15.11
2018-07-12T04:06:08.271Z,15.16
2018-07-12T04:08:35.943Z,15.24
2018-07-12T04:11:03.604Z,15.24
2018-07-12T04:13:31.243Z,15.20
2018-07-12T04:15:58.874Z,15.26
2018-07-12T04:18:26.766Z,15.41
2018-07-12T04:20:54.731Z,15.55
2018-07-12T04:23:22.363Z,15.45
2018-07-12T04:25:49.997Z,15.57
2018-07-12T04:28:17.814Z,15.58
2018-07-12T04:30:45.676Z,15.67
2018-07-12T04:33:13.995Z,15.79
2018-07-12T04:35:41.935Z,15.90
2018-07-12T04:38:09.570Z,15.85
2018-07-12T04:40:37.570Z,16.00
2018-07-12T04:43:05.266Z,16.28
2018-07-12T04:45:32.923Z,16.27
2018-07-12T04:48:00.634Z,16.41
2018-07-12T04:50:28.522Z,16.49
2018-07-12T04:52:56.544Z,16.10
2018-07-12T04:55:24.786Z,15.91
2018-07-12T04:57:52.448Z,15.70
2018-07-12T05:00:20.590Z,16.20
2018-07-12T05:02:48.659Z,17.02
2018-07-12T05:05:16.277Z,17.98
2018-07-12T05:07:44.583Z,19.16
2018-07-12T05:10:12.695Z,19.90
2018-07-12T05:12:42.215Z,19.43
2018-07-12T05:15:10.175Z,18.78
2018-07-12T05:17:37.792Z,18.92
2018-07-12T05:20:05.454Z,18.84
2018-07-12T05:22:33.374Z,19.45
2018-07-12T05:25:01.015Z,19.58
2018-07-12T05:27:28.721Z,19.71
2018-07-12T05:29:56.633Z,19.07
2018-07-12T05:32:24.995Z,19.24
2018-07-12T05:34:52.705Z,19.32
2018-07-12T05:37:22.439Z,19.12
2018-07-12T05:39:52.435Z,20.81
2018-07-12T05:42:22.318Z,22.34
2018-07-12T05:44:52.191Z,23.03
2018-07-12T05:47:21.564Z,23.28
2018-07-12T05:49:50.931Z,25.46
2018-07-12T05:52:20.793Z,24.91
2018-07-12T05:54:50.035Z,26.03
2018-07-12T05:57:19.336Z,26.30
2018-07-12T05:59:49.011Z,25.03
2018-07-12T06:02:21.546Z,24.01
2018-07-12T06:04:51.637Z,23.33
2018-07-12T06:07:26.242Z,23.17
2018-07-12T06:09:56.195Z,22.76
2018-07-12T06:12:26.626Z,22.70
2018-07-12T06:14:55.903Z,22.42
2018-07-12T06:17:25.238Z,22.05
2018-07-12T06:19:55.091Z,22.14
2018-07-12T06:22:24.691Z,21.49
2018-07-12T06:24:54.262Z,21.41
2018-07-12T06:27:23.609Z,21.43
2018-07-12T06:29:53.422Z,21.23
2018-07-12T06:32:22.906Z,21.34
2018-07-12T06:34:52.039Z,21.32
2018-07-12T06:37:21.144Z,21.03
2018-07-12T06:39:50.243Z,20.87
2018-07-12T06:42:19.386Z,20.38
2018-07-12T06:44:48.903Z,20.39
2018-07-12T06:47:18.446Z,20.39
2018-07-12T06:49:47.346Z,20.57
2018-07-12T06:52:16.948Z,20.08
2018-07-12T06:54:46.143Z,20.26
2018-07-12T06:57:16.773Z,20.45
2018-07-12T06:59:45.866Z,20.40
2018-07-12T07:02:14.981Z,20.04
2018-07-12T07:04:44.133Z,20.21
2018-07-12T07:07:13.781Z,19.93
2018-07-12T07:09:42.922Z,20.11
2018-07-12T07:12:12.011Z,20.17
2018-07-12T07:14:41.145Z,20.04
2018-07-12T07:17:10.369Z,20.09
2018-07-12T07:19:39.674Z,20.08
2018-07-12T07:22:08.952Z,19.72
2018-07-12T07:24:38.498Z,19.38
2018-07-12T07:27:07.594Z,19.74
2018-07-12T07:29:36.746Z,19.68
2018-07-12T07:32:05.876Z,19.45
2018-07-12T07:34:35.015Z,19.64
2018-07-12T07:37:04.162Z,18.93
2018-07-12T07:39:33.254Z,18.86
2018-07-12T07:42:02.436Z,18.02
2018-07-12T07:44:32.346Z,17.91
2018-07-12T07:47:01.774Z,18.46
2018-07-12T07:49:31.138Z,18.41
2018-07-12T07:52:00.418Z,18.86
2018-07-12T07:54:29.703Z,19.10
2018-07-12T07:56:58.913Z,18.92
2018-07-12T07:59:28.310Z,18.57
2018-07-12T08:01:57.662Z,18.19
2018-07-12T08:04:27.959Z,18.24
2018-07-12T08:06:57.270Z,18.22
2018-07-12T08:09:26.541Z,17.70
2018-07-12T08:11:55.779Z,17.43
2018-07-12T08:14:25.091Z,17.14
2018-07-12T08:16:53.851Z,17.08
2018-07-12T08:19:22.986Z,16.95
2018-07-12T08:22:03.350Z,17.24
2018-07-12T08:24:32.483Z,17.66
2018-07-12T08:27:01.620Z,18.15
2018-07-12T08:29:31.085Z,18.32
2018-07-12T08:32:01.166Z,18.48
2018-07-12T08:34:30.339Z,19.03
2018-07-12T08:36:59.538Z,19.37
2018-07-12T08:39:28.590Z,19.65
2018-07-12T08:41:57.758Z,20.11
2018-07-12T08:44:26.872Z,20.42
2018-07-12T08:46:55.959Z,21.64
2018-07-12T08:49:25.902Z,22.71
2018-07-12T08:51:55.026Z,22.75
2018-07-12T08:54:24.145Z,23.90
2018-07-12T08:56:53.341Z,25.50
2018-07-12T08:59:22.483Z,26.22
2018-07-12T09:01:51.597Z,25.72
2018-07-12T09:04:21.395Z,26.87
2018-07-12T09:06:51.323Z,28.24
2018-07-12T09:09:20.562Z,28.34
2018-07-12T09:11:49.820Z,28.99
2018-07-12T09:14:19.438Z,28.10
2018-07-12T09:16:49.215Z,29.77
2018-07-12T09:19:19.283Z,28.26
2018-07-12T09:21:49.224Z,24.73
2018-07-12T09:24:19.131Z,25.91
2018-07-12T09:26:48.999Z,27.81
2018-07-12T09:29:18.399Z,29.54
2018-07-12T09:31:47.998Z,26.31
2018-07-12T09:34:18.078Z,25.73
2018-07-12T09:36:47.875Z,24.37
2018-07-12T09:39:17.810Z,25.46
2018-07-12T09:41:47.135Z,26.98
2018-07-12T09:44:16.622Z,26.51
2018-07-12T09:46:45.898Z,27.16
2018-07-12T09:49:15.346Z,26.12
2018-07-12T09:51:44.311Z,25.98
2018-07-12T09:54:13.411Z,24.62
2018-07-12T09:56:59.366Z,22.50
2018-07-12T09:59:28.799Z,23.46
2018-07-12T10:02:02.838Z,28.96
2018-07-12T10:04:32.458Z,32.60
2018-07-12T10:07:07.567Z,31.65
2018-07-12T10:09:41.877Z,34.54
2018-07-12T10:12:16.299Z,32.03
2018-07-12T10:14:51.594Z,31.56
2018-07-12T10:17:25.888Z,30.36
2018-07-12T10:19:55.029Z,31.37
2018-07-12T10:22:24.748Z,30.88
2018-07-12T10:24:53.890Z,33.89
2018-07-12T10:27:23.151Z,31.89
2018-07-12T10:29:52.890Z,32.96
2018-07-12T10:32:22.106Z,32.66
2018-07-12T10:34:51.508Z,35.21
2018-07-12T10:37:21.019Z,38.26
2018-07-12T10:39:50.947Z,39.22
2018-07-12T10:42:20.450Z,37.87
2018-07-12T10:44:50.402Z,35.69
2018-07-12T10:47:19.699Z,31.54
2018-07-12T10:49:49.068Z,30.45
2018-07-12T10:52:18.346Z,33.99
2018-07-12T10:54:48.018Z,33.14
2018-07-12T10:57:17.139Z,31.70
2018-07-12T10:59:46.246Z,34.24
2018-07-12T11:02:15.383Z,36.01
2018-07-12T11:04:46.398Z,34.68
2018-07-12T11:07:15.647Z,35.51
2018-07-12T11:09:44.955Z,34.34
2018-07-12T11:12:14.430Z,31.32
2018-07-12T11:14:43.666Z,28.65
2018-07-12T11:17:12.755Z,29.20
2018-07-12T11:19:41.882Z,27.48
2018-07-12T11:22:10.964Z,27.94
2018-07-12T11:24:41.067Z,27.36
2018-07-12T11:27:10.195Z,27.27
2018-07-12T11:29:54.974Z,26.72
2018-07-12T11:32:24.100Z,26.39
2018-07-12T11:34:53.283Z,27.79
2018-07-12T11:37:25.978Z,28.38
2018-07-12T11:39:55.143Z,27.24
2018-07-12T11:42:24.018Z,27.02
2018-07-12T11:44:53.135Z,26.54
2018-07-12T11:47:22.312Z,28.06
2018-07-12T11:49:51.397Z,29.09
2018-07-12T11:52:20.515Z,29.94
2018-07-12T11:54:49.617Z,31.23
2018-07-12T11:57:18.728Z,31.70
2018-07-12T11:59:47.847Z,33.19
2018-07-12T12:02:16.926Z,32.70
2018-07-12T12:04:46.014Z,31.65
2018-07-12T12:07:15.127Z,33.30
2018-07-12T12:09:45.051Z,32.82
2018-07-12T12:12:14.240Z,32.75
2018-07-12T12:14:43.450Z,32.75
2018-07-12T12:17:12.776Z,32.74
2018-07-12T12:19:42.190Z,28.43
2018-07-12T12:22:12.486Z,26.82
2018-07-12T12:24:42.170Z,26.96
2018-07-12T12:27:11.863Z,26.23
2018-07-12T12:29:41.090Z,25.41
2018-07-12T12:32:10.874Z,26.21
2018-07-12T12:34:39.787Z,26.73
2018-07-12T12:37:09.123Z,27.57
2018-07-12T12:39:38.258Z,27.65
2018-07-12T12:42:07.350Z,28.50
2018-07-12T12:44:37.263Z,32.97
2018-07-12T12:47:07.278Z,36.86
2018-07-12T12:49:36.643Z,33.11
2018-07-12T12:52:05.990Z,31.66
2018-07-12T12:54:35.275Z,29.29
2018-07-12T12:57:05.468Z,29.92
2018-07-12T12:59:35.243Z,31.54
2018-07-12T13:02:05.108Z,31.66
2018-07-12T13:04:34.429Z,33.93
2018-07-12T13:07:04.347Z,35.27
2018-07-12T13:09:33.571Z,32.53
2018-07-12T13:12:03.460Z,34.02
2018-07-12T13:14:33.246Z,34.09
2018-07-12T13:17:02.583Z,31.72
2018-07-12T13:19:32.236Z,31.34
2018-07-12T13:22:02.615Z,33.53
2018-07-12T13:24:31.867Z,33.96
2018-07-12T13:27:01.077Z,33.17
2018-07-12T13:29:30.274Z,32.15
2018-07-12T13:32:00.192Z,32.93
2018-07-12T13:34:30.083Z,34.02
2018-07-12T13:37:00.506Z,33.02
2018-07-12T13:39:29.634Z,33.89
2018-07-12T13:41:58.915Z,33.68
2018-07-12T13:44:28.070Z,32.25
2018-07-12T13:46:57.165Z,31.32
2018-07-12T13:49:26.258Z,34.84
2018-07-12T13:51:55.379Z,33.79
2018-07-12T13:54:24.487Z,32.43
2018-07-12T13:56:53.768Z,30.19
2018-07-12T13:59:22.909Z,33.11
2018-07-12T14:01:52.071Z,32.52
2018-07-12T14:04:21.183Z,31.98
2018-07-12T14:06:50.382Z,34.78
2018-07-12T14:09:19.529Z,36.15
2018-07-12T14:11:48.673Z,34.72
2018-07-12T14:14:18.184Z,33.08
2018-07-12T14:16:48.139Z,33.65
2018-07-12T14:19:18.062Z,32.48
2018-07-12T14:21:48.019Z,29.90
2018-07-12T14:24:17.999Z,29.60
2018-07-12T14:26:47.351Z,31.15
2018-07-12T14:29:16.998Z,29.11
2018-07-12T14:31:46.909Z,27.53
2018-07-12T14:34:16.785Z,26.45
2018-07-12T14:36:46.010Z,25.97
2018-07-12T14:39:15.230Z,26.92
2018-07-12T14:41:44.578Z,26.84
2018-07-12T14:44:14.036Z,29.28
2018-07-12T14:46:43.827Z,29.60
2018-07-12T14:49:13.803Z,27.24
2018-07-12T14:51:43.816Z,26.71
2018-07-12T14:54:13.658Z,28.69
2018-07-12T14:56:43.623Z,32.32
2018-07-12T14:59:13.395Z,33.02
2018-07-12T15:01:42.486Z,34.80
2018-07-12T15:04:11.803Z,33.03
2018-07-12T15:06:40.974Z,30.64
2018-07-12T15:09:10.634Z,31.10
2018-07-12T15:11:39.574Z,31.51
2018-07-12T15:14:08.986Z,29.41
2018-07-12T15:16:38.135Z,29.56
2018-07-12T15:19:07.258Z,29.45
2018-07-12T15:21:36.739Z,28.25
2018-07-12T15:24:06.535Z,28.68
2018-07-12T15:26:35.986Z,27.02
2018-07-12T15:29:05.419Z,26.30
2018-07-12T15:31:35.077Z,25.64
2018-07-12T15:34:04.934Z,25.22
2018-07-12T15:36:34.250Z,25.00
2018-07-12T15:39:06.319Z,25.68
2018-07-12T15:41:35.414Z,26.94
2018-07-12T15:44:04.546Z,26.61
2018-07-12T15:46:33.943Z,26.41
2018-07-12T15:49:03.426Z,25.73
2018-07-12T15:51:37.820Z,25.07
2018-07-12T15:54:06.906Z,24.87
2018-07-12T15:56:36.033Z,24.72
2018-07-12T15:59:05.202Z,24.63
2018-07-12T16:01:34.335Z,24.41
2018-07-12T16:04:03.454Z,24.26
2018-07-12T16:06:32.947Z,24.44
2018-07-12T16:09:02.506Z,24.47
2018-07-12T16:11:31.795Z,24.24
2018-07-12T16:14:00.922Z,24.66
2018-07-12T16:16:30.000Z,25.00
2018-07-12T16:19:00.035Z,24.75
2018-07-12T16:21:29.151Z,25.07
2018-07-12T16:23:58.243Z,24.50
2018-07-12T16:26:27.367Z,24.56
2018-07-12T16:28:56.463Z,24.79
2018-07-12T16:31:26.323Z,25.26
2018-07-12T16:33:55.433Z,25.10
2018-07-12T16:36:24.522Z,25.44
2018-07-12T16:38:54.650Z,25.88
2018-07-12T16:41:24.074Z,26.88
2018-07-12T16:43:53.484Z,28.61
2018-07-12T16:46:22.701Z,28.65
2018-07-12T16:48:52.506Z,28.85
2018-07-12T16:51:21.750Z,28.96
2018-07-12T16:53:51.254Z,29.21
2018-07-12T16:56:20.491Z,29.65
2018-07-12T16:58:49.863Z,30.23
2018-07-12T17:01:19.010Z,29.71
2018-07-12T17:03:48.106Z,30.07
2018-07-12T17:06:17.955Z,29.95
2018-07-12T17:08:47.591Z,30.01
2018-07-12T17:11:16.694Z,29.60
2018-07-12T17:13:45.836Z,29.12
2018-07-12T17:16:14.962Z,28.02
2018-07-12T17:18:44.287Z,28.27
2018-07-12T17:21:14.530Z,28.55
2018-07-12T17:23:44.200Z,28.07
2018-07-12T17:26:13.813Z,28.22
2018-07-12T17:28:43.869Z,26.96
2018-07-12T17:31:14.129Z,26.53
2018-07-12T17:33:44.829Z,26.00
2018-07-12T17:36:13.906Z,25.52
2018-07-12T17:38:42.993Z,25.63
2018-07-12T17:41:12.193Z,25.77
2018-07-12T17:43:41.282Z,25.63
2018-07-12T17:46:11.073Z,26.19
2018-07-12T17:48:40.167Z,25.59
2018-07-12T17:51:12.155Z,25.35
2018-07-12T17:53:42.000Z,25.46
2018-07-12T17:56:11.932Z,25.10
2018-07-12T17:58:41.491Z,24.90
2018-07-12T18:01:10.930Z,24.68
2018-07-12T18:03:40.274Z,24.74
2018-07-12T18:06:09.990Z,24.60
2018-07-12T18:08:39.786Z,24.74
2018-07-12T18:11:09.099Z,25.00
2018-07-12T18:13:37.935Z,25.58
2018-07-12T18:16:07.138Z,25.18
2018-07-12T18:18:36.252Z,25.39
2018-07-12T18:21:06.482Z,25.08
2018-07-12T18:23:35.554Z,24.49
2018-07-12T18:26:06.499Z,24.07
2018-07-12T18:28:35.609Z,23.81
2018-07-12T18:31:05.187Z,23.91
2018-07-12T18:33:34.302Z,24.05
2018-07-12T18:36:04.811Z,23.80
2018-07-12T18:38:33.910Z,23.74
2018-07-12T18:41:03.393Z,23.59
2018-07-12T18:43:33.312Z,23.39
2018-07-12T18:46:03.198Z,23.21
2018-07-12T18:48:33.159Z,23.03
2018-07-12T18:51:02.427Z,22.74
2018-07-12T18:53:32.471Z,22.49
2018-07-12T18:56:02.048Z,22.29
2018-07-12T18:58:31.631Z,22.06
2018-07-12T19:01:01.107Z,21.86
2018-07-12T19:03:30.283Z,21.68
2018-07-12T19:06:00.039Z,21.71
2018-07-12T19:08:30.146Z,21.51
2018-07-12T19:10:59.923Z,21.36
2018-07-12T19:13:29.815Z,21.19
2018-07-12T19:15:59.747Z,21.04
2018-07-12T19:18:29.179Z,20.86
2018-07-12T19:20:58.943Z,20.70
2018-07-12T19:23:29.774Z,20.55
2018-07-12T19:25:59.257Z,20.41
2018-07-12T19:28:28.338Z,20.34
2018-07-12T19:30:58.542Z,20.34
2018-07-12T19:33:27.686Z,20.46
2018-07-12T19:35:56.747Z,20.27
2018-07-12T19:38:26.040Z,20.00
2018-07-12T19:40:55.911Z,19.83
2018-07-12T19:43:26.490Z,19.71
2018-07-12T19:45:56.926Z,19.53
2018-07-12T19:48:26.307Z,19.40
2018-07-12T19:50:55.564Z,19.36
2018-07-12T19:53:24.797Z,19.20
2018-07-12T19:55:55.250Z,19.08
2018-07-12T19:58:25.011Z,19.08
2018-07-12T20:00:54.298Z,18.91
2018-07-12T20:03:23.713Z,18.78
2018-07-12T20:05:53.394Z,18.74
2018-07-12T20:08:22.878Z,18.66
2018-07-12T20:10:51.970Z,18.52
2018-07-12T20:13:21.060Z,18.34
2018-07-12T20:15:50.740Z,18.32
2018-07-12T20:18:19.941Z,18.21
2018-07-12T20:20:49.064Z,18.24
2018-07-12T20:23:18.465Z,18.25
2018-07-12T20:25:48.539Z,18.23
2018-07-12T20:28:18.479Z,18.21
2018-07-12T20:30:48.590Z,18.06
2018-07-12T20:33:18.307Z,17.99
2018-07-12T20:35:48.782Z,17.97
2018-07-12T20:38:18.583Z,17.90
2018-07-12T20:40:47.705Z,17.84
2018-07-12T20:43:20.854Z,17.82
2018-07-12T20:45:50.379Z,17.65
2018-07-12T20:48:19.698Z,17.56
2018-07-12T20:50:49.362Z,17.66
2018-07-12T20:53:19.318Z,17.51
2018-07-12T20:55:50.326Z,17.39
2018-07-12T20:58:19.406Z,17.41
2018-07-12T21:00:50.276Z,17.48
2018-07-12T21:03:19.394Z,17.38
2018-07-12T21:05:50.243Z,17.44
2018-07-12T21:08:19.539Z,17.43
2018-07-12T21:10:49.386Z,17.20
2018-07-12T21:13:19.322Z,16.95
2018-07-12T21:15:48.420Z,16.90
2018-07-12T21:18:17.546Z,16.75
2018-07-12T21:20:46.786Z,16.62
2018-07-12T21:23:16.590Z,16.59
2018-07-12T21:25:46.154Z,16.53
2018-07-12T21:28:15.648Z,16.45
2018-07-12T21:30:44.887Z,16.34
2018-07-12T21:33:14.595Z,16.34
2018-07-12T21:35:44.602Z,16.33
2018-07-12T21:38:14.435Z,16.09
2018-07-12T21:40:45.679Z,16.01
2018-07-12T21:43:15.110Z,15.87
2018-07-12T21:45:45.074Z,15.85
2018-07-12T21:48:14.487Z,15.76
2018-07-12T21:50:44.015Z,15.65
2018-07-12T21:53:13.494Z,15.53
2018-07-12T21:55:42.596Z,15.41
2018-07-12T21:58:11.742Z,15.39
2018-07-12T22:00:40.812Z,15.40
2018-07-12T22:03:09.963Z,15.41
2018-07-12T22:05:39.119Z,15.51
2018-07-12T22:08:14.568Z,15.53
2018-07-12T22:10:44.791Z,15.29
2018-07-12T22:13:14.483Z,15.07
2018-07-12T22:15:43.618Z,14.97
2018-07-12T22:18:12.775Z,15.03
2018-07-12T22:20:41.866Z,15.12
2018-07-12T22:23:11.251Z,15.14
2018-07-12T22:25:41.235Z,15.04
2018-07-12T22:28:10.522Z,14.93
2018-07-12T22:30:39.965Z,14.87
2018-07-12T22:33:09.306Z,14.84
2018-07-12T22:35:39.143Z,14.80
2018-07-12T22:38:08.482Z,14.66
2018-07-12T22:40:37.582Z,14.49
2018-07-12T22:43:06.675Z,14.47
2018-07-12T22:45:36.323Z,14.50
2018-07-12T22:48:05.499Z,14.33
2018-07-12T22:50:35.047Z,14.40
2018-07-12T22:53:04.134Z,14.22
2018-07-12T22:55:33.553Z,14.14
2018-07-12T22:58:02.647Z,14.25
2018-07-12T23:00:31.798Z,14.46
2018-07-12T23:03:00.898Z,14.49
2018-07-12T23:05:30.008Z,14.41
2018-07-12T23:07:59.189Z,14.45
2018-07-12T23:10:29.050Z,14.64
2018-07-12T23:12:59.031Z,14.57
2018-07-12T23:15:28.870Z,14.50
2018-07-12T23:17:58.186Z,14.46
2018-07-12T23:20:26.987Z,14.28
2018-07-12T23:22:56.123Z,14.17
2018-07-12T23:25:25.395Z,14.24
2018-07-12T23:27:54.619Z,14.24
2018-07-12T23:30:24.140Z,14.19
2018-07-12T23:32:53.258Z,13.98
2018-07-12T23:35:22.371Z,13.91
2018-07-12T23:37:51.842Z,13.81
2018-07-12T23:40:20.987Z,13.86
2018-07-12T23:42:50.167Z,13.77
2018-07-12T23:45:19.325Z,13.74
2018-07-12T23:47:48.410Z,13.77
2018-07-12T23:50:17.731Z,13.61
2018-07-12T23:52:46.854Z,13.55
2018-07-12T23:55:15.975Z,13.52
2018-07-12T23:57:45.115Z,13.44
